Time;durP1;ratioP1;P1;durP2;ratioP2;P2;SDS_P1;SDS_P2;PMS_P1;PMS_P2;Temp;Humidity;BMP_temperature;BMP_pressure;BME280_temperature;BME280_humidity;BME280_pressure;Samples;Min_cycle;Max_cycle;Signal;HPM_P1;HPM_P2
2021/01/01 00:01:41;;;;;;;19.43;14.50;;;;;;;4.55;100.00;99133.03;637827;224;24787;-72
2021/01/01 00:04:09;;;;;;;21.33;14.40;;;;;;;4.53;100.00;99136.69;654653;217;26957;-72
2021/01/01 00:06:37;;;;;;;16.93;12.40;;;;;;;4.56;100.00;99135.13;638818;224;24782;-72
2021/01/01 00:09:05;;;;;;;22.03;13.77;;;;;;;4.63;100.00;99139.59;639572;224;24798;-71
2021/01/01 00:11:33;;;;;;;22.17;13.27;;;;;;;4.56;100.00;99138.99;650729;219;24799;-71
2021/01/01 00:14:01;;;;;;;26.68;18.77;;;;;;;5.21;100.00;99129.79;632300;224;33050;-71
2021/01/01 00:16:29;;;;;;;29.30;18.63;;;;;;;4.72;100.00;99144.43;638728;224;23658;-71
2021/01/01 00:18:57;;;;;;;24.97;16.93;;;;;;;4.57;100.00;99136.28;653990;219;24760;-72
2021/01/01 00:21:30;;;;;;;18.07;12.63;;;;;;;4.60;100.00;99137.77;652742;219;24804;-71
2021/01/01 00:23:58;;;;;;;21.52;16.55;;;;;;;4.98;100.00;99133.13;633392;224;32910;-71
2021/01/01 00:26:26;;;;;;;19.73;12.97;;;;;;;4.64;100.00;99138.65;639124;224;23672;-71
2021/01/01 00:28:54;;;;;;;16.10;12.00;;;;;;;4.70;100.00;99139.41;654321;219;24760;-71
2021/01/01 00:31:22;;;;;;;17.77;13.17;;;;;;;4.48;100.00;99144.32;652178;219;24790;-74
2021/01/01 00:33:51;;;;;;;19.60;13.07;;;;;;;4.45;100.00;99142.48;651594;219;25063;-72
2021/01/01 00:36:19;;;;;;;18.50;13.00;;;;;;;4.40;100.00;99143.38;650491;219;27953;-71
2021/01/01 00:38:50;;;;;;;16.77;11.87;;;;;;;4.36;100.00;99135.55;639253;224;24856;-71
2021/01/01 00:41:15;;;;;;;18.00;12.33;;;;;;;4.29;100.00;99135.75;639458;224;24846;-72
2021/01/01 00:43:43;;;;;;;20.63;12.50;;;;;;;4.01;100.00;99139.86;640590;224;24799;-71
2021/01/01 00:46:11;;;;;;;16.87;11.20;;;;;;;4.11;100.00;99144.11;638122;224;24777;-71
2021/01/01 00:48:39;;;;;;;17.40;11.50;;;;;;;4.00;100.00;99137.77;639991;224;24854;-71
2021/01/01 00:51:08;;;;;;;19.73;15.45;;;;;;;4.34;100.00;99135.69;635633;222;32785;-71
2021/01/01 00:53:36;;;;;;;16.47;12.37;;;;;;;4.14;100.00;99137.88;654963;218;23673;-71
2021/01/01 00:56:04;;;;;;;20.35;15.63;;;;;;;4.65;100.00;99135.16;646943;219;43300;-71
2021/01/01 00:58:32;;;;;;;21.23;15.47;;;;;;;4.27;100.00;99153.91;638218;224;23665;-71
2021/01/01 01:01:00;;;;;;;28.27;17.70;;;;;;;4.27;100.00;99154.37;651889;219;24746;-71
2021/01/01 01:03:27;;;;;;;24.97;16.17;;;;;;;4.03;100.00;99155.51;651641;219;24821;-71
2021/01/01 01:05:56;;;;;;;16.20;11.20;;;;;;;3.77;100.00;99158.98;652800;219;26861;-71
2021/01/01 01:08:24;;;;;;;14.07;10.73;;;;;;;3.80;100.00;99159.19;639567;223;24853;-71
2021/01/01 01:10:51;;;;;;;19.95;14.55;;;;;;;4.14;100.00;99164.89;636616;224;32772;-73
2021/01/01 01:13:19;;;;;;;17.60;12.13;;;;;;;3.65;100.00;99173.32;638677;224;23737;-71
2021/01/01 01:15:48;;;;;;;14.63;10.50;;;;;;;3.53;100.00;99181.59;653861;220;24773;-72
2021/01/01 01:18:16;;;;;;;15.93;11.47;;;;;;;3.66;100.00;99169.80;652189;219;24772;-71
2021/01/01 01:20:44;;;;;;;15.47;10.67;;;;;;;3.45;100.00;99179.64;651305;219;24757;-71
2021/01/01 01:23:12;;;;;;;15.70;10.57;;;;;;;3.39;100.00;99178.87;640222;224;24866;-71
2021/01/01 01:25:39;;;;;;;16.27;11.43;;;;;;;3.30;100.00;99185.22;638998;224;24804;-71
2021/01/01 01:28:07;;;;;;;18.40;11.60;;;;;;;3.51;100.00;99193.26;651868;219;24770;-71
2021/01/01 01:30:35;;;;;;;14.70;11.00;;;;;;;3.47;100.00;99190.61;653373;219;24746;-71
2021/01/01 01:33:03;;;;;;;17.43;11.43;;;;;;;3.61;100.00;99184.33;640287;223;24813;-71
2021/01/01 01:35:31;;;;;;;16.47;11.43;;;;;;;3.74;100.00;99180.28;638676;222;28033;-72
2021/01/01 01:37:59;;;;;;;18.10;11.60;;;;;;;3.63;100.00;99188.88;651825;219;24770;-71
2021/01/01 01:40:27;;;;;;;14.93;11.00;;;;;;;3.36;100.00;99191.94;652195;219;24763;-71
2021/01/01 01:42:55;;;;;;;17.47;11.57;;;;;;;3.20;100.00;99200.08;648411;221;24946;-71
2021/01/01 01:45:23;;;;;;;18.97;12.70;;;;;;;3.15;100.00;99211.20;639425;223;24811;-71
2021/01/01 01:47:51;;;;;;;16.80;12.00;;;;;;;3.21;100.00;99207.31;649756;219;24790;-71
2021/01/01 01:50:19;;;;;;;16.63;12.10;;;;;;;3.36;100.00;99215.07;639875;220;24867;-71
2021/01/01 01:52:47;;;;;;;19.57;13.10;;;;;;;3.52;100.00;99209.05;640563;224;24817;-71
2021/01/01 01:55:15;;;;;;;17.23;12.20;;;;;;;3.53;100.00;99219.68;639651;224;27252;-71
2021/01/01 01:57:42;;;;;;;18.97;12.90;;;;;;;3.52;100.00;99220.62;652771;219;24792;-71
2021/01/01 02:00:32;;;;;;;16.80;12.10;;;;;;;3.65;100.00;99217.02;640216;224;27255;-71
2021/01/01 02:02:46;;;;;;;16.27;11.00;;;;;;;3.58;100.00;99220.58;653427;218;24782;-71
2021/01/01 02:05:14;;;;;;;20.60;11.87;;;;;;;3.58;100.00;99224.44;654895;219;24757;-71
2021/01/01 02:07:42;;;;;;;15.10;11.57;;;;;;;3.32;100.00;99218.84;639165;223;24804;-71
2021/01/01 02:10:11;;;;;;;15.07;10.60;;;;;;;3.34;100.00;99216.14;640152;224;24826;-71
2021/01/01 02:12:39;;;;;;;14.63;10.80;;;;;;;3.25;100.00;99226.70;647434;219;24766;-71
2021/01/01 02:15:08;;;;;;;16.10;11.37;;;;;;;3.47;100.00;99229.16;640312;221;24814;-71
2021/01/01 02:17:36;;;;;;;14.93;11.20;;;;;;;3.51;100.00;99231.81;653372;219;24776;-71
2021/01/01 02:20:06;;;;;;;15.63;10.70;;;;;;;3.39;100.00;99231.55;640226;224;25094;-71
2021/01/01 02:22:35;;;;;;;15.98;12.40;;;;;;;3.95;100.00;99235.56;648085;219;32706;-71
2021/01/01 02:25:04;;;;;;;13.90;10.23;;;;;;;3.54;100.00;99232.06;652807;219;25721;-71
2021/01/01 02:27:32;;;;;;;12.57;10.00;;;;;;;3.37;100.00;99239.83;651003;220;24770;-71
2021/01/01 02:30:00;;;;;;;12.83;10.20;;;;;;;3.41;100.00;99236.56;651423;219;24767;-71
2021/01/01 02:32:27;;;;;;;11.80;9.20;;;;;;;3.32;100.00;99243.72;652382;219;27964;-71
2021/01/01 02:34:55;;;;;;;13.17;9.23;;;;;;;3.27;100.00;99242.34;641438;224;24796;-72
2021/01/01 02:37:23;;;;;;;13.33;10.60;;;;;;;3.37;100.00;99239.01;638144;224;24803;-71
2021/01/01 02:39:51;;;;;;;13.13;9.43;;;;;;;3.21;100.00;99247.13;652585;219;24747;-72
2021/01/01 02:42:19;;;;;;;13.47;9.70;;;;;;;3.12;100.00;99252.55;651717;219;25036;-71
2021/01/01 02:44:47;;;;;;;14.87;10.30;;;;;;;3.09;100.00;99243.78;639530;224;24820;-72
2021/01/01 02:47:16;;;;;;;15.93;10.47;;;;;;;3.09;100.00;99254.05;656028;218;25491;-71
2021/01/01 02:49:44;;;;;;;12.97;9.40;;;;;;;3.05;100.00;99246.73;637373;224;24842;-71
2021/01/01 02:52:12;;;;;;;13.73;9.60;;;;;;;3.14;100.00;99249.86;648468;221;24814;-71
2021/01/01 02:54:40;;;;;;;14.77;9.70;;;;;;;3.18;100.00;99250.77;648399;221;24793;-71
2021/01/01 02:57:08;;;;;;;12.27;9.80;;;;;;;3.06;100.00;99248.36;650325;221;24871;-71
2021/01/01 02:59:36;;;;;;;13.13;9.63;;;;;;;3.19;100.00;99250.30;645789;221;24822;-71
2021/01/01 03:02:04;;;;;;;12.60;9.93;;;;;;;3.33;100.00;99253.87;647101;221;25935;-71
2021/01/01 03:04:32;;;;;;;11.57;8.60;;;;;;;3.23;100.00;99251.20;638604;221;25967;-71
2021/01/01 03:07:00;;;;;;;13.87;9.50;;;;;;;3.13;100.00;99261.08;650660;219;25891;-71
2021/01/01 03:09:27;;;;;;;12.30;9.23;;;;;;;3.22;100.00;99256.47;638990;223;25146;-71
2021/01/01 03:11:55;;;;;;;17.02;12.60;;;;;;;3.53;100.00;99258.23;645417;219;43344;-72
2021/01/01 03:14:23;;;;;;;13.93;9.93;;;;;;;3.32;100.00;99271.98;653323;218;23648;-71
2021/01/01 03:16:51;;;;;;;15.63;9.73;;;;;;;3.22;100.00;99268.84;640894;224;24800;-71
2021/01/01 03:19:19;;;;;;;16.70;10.10;;;;;;;3.06;100.00;99267.62;652582;219;24872;-71
2021/01/01 03:21:47;;;;;;;14.17;10.03;;;;;;;2.96;100.00;99264.51;640608;219;24801;-71
2021/01/01 03:24:15;;;;;;;17.10;10.17;;;;;;;2.84;100.00;99259.05;640266;221;25281;-74
2021/01/01 03:26:43;;;;;;;12.90;9.27;;;;;;;2.79;100.00;99262.42;640619;224;24816;-74
2021/01/01 03:29:11;;;;;;;15.40;10.37;;;;;;;2.76;100.00;99258.81;654488;219;24769;-74
2021/01/01 03:31:39;;;;;;;19.40;11.97;;;;;;;2.70;100.00;99260.58;653875;219;24771;-74
2021/01/01 03:34:07;;;;;;;19.17;11.80;;;;;;;2.58;100.00;99265.38;641444;223;24908;-74
2021/01/01 03:36:35;;;;;;;19.27;11.97;;;;;;;2.50;100.00;99259.53;639922;224;26007;-74
2021/01/01 03:39:03;;;;;;;18.37;12.13;;;;;;;2.57;100.00;99260.71;639882;224;28013;-74
2021/01/01 03:41:32;;;;;;;14.63;10.60;;;;;;;2.53;100.00;99263.61;638592;224;24798;-74
2021/01/01 03:43:59;;;;;;;15.20;10.20;;;;;;;2.57;100.00;99270.16;652945;220;24848;-74
2021/01/01 03:46:27;;;;;;;15.33;10.87;;;;;;;2.65;100.00;99265.23;637837;224;24819;-74
2021/01/01 03:48:55;;;;;;;13.93;10.03;;;;;;;2.78;100.00;99263.36;652918;219;24772;-74
2021/01/01 03:51:22;;;;;;;14.37;9.60;;;;;;;2.77;100.00;99261.72;638511;223;24832;-74
2021/01/01 03:53:50;;;;;;;12.13;9.13;;;;;;;2.71;100.00;99262.69;639746;224;24800;-74
2021/01/01 03:56:18;;;;;;;16.07;10.27;;;;;;;2.74;100.00;99259.88;650506;219;24788;-74
2021/01/01 03:58:46;;;;;;;12.33;9.50;;;;;;;2.58;100.00;99267.47;639384;224;24801;-74
2021/01/01 04:01:16;;;;;;;21.23;14.75;;;;;;;2.47;100.00;99263.63;635172;224;44189;-74
2021/01/01 04:03:44;;;;;;;18.60;10.70;;;;;;;2.19;100.00;99261.05;646997;220;23633;-74
2021/01/01 04:06:12;;;;;;;16.77;10.17;;;;;;;2.09;100.00;99265.23;650212;219;24771;-74
2021/01/01 04:08:40;;;;;;;13.43;10.03;;;;;;;1.94;100.00;99256.12;639761;224;24817;-73
2021/01/01 04:11:08;;;;;;;15.37;9.50;;;;;;;1.99;100.00;99260.46;640088;221;24819;-74
2021/01/01 04:13:36;;;;;;;15.23;10.00;;;;;;;1.95;100.00;99253.44;654018;219;24754;-74
2021/01/01 04:16:04;;;;;;;14.03;8.80;;;;;;;1.99;100.00;99268.16;651725;219;24804;-73
2021/01/01 04:18:32;;;;;;;16.35;11.80;;;;;;;2.07;100.00;99265.34;646894;219;32677;-74
2021/01/01 04:21:00;;;;;;;14.63;10.47;;;;;;;1.98;100.00;99269.90;649251;219;23665;-74
2021/01/01 04:23:28;;;;;;;14.57;9.37;;;;;;;2.03;100.00;99269.55;651405;219;25088;-74
2021/01/01 04:25:56;;;;;;;16.17;9.93;;;;;;;1.92;100.00;99261.83;653182;218;24764;-73
2021/01/01 04:28:24;;;;;;;14.60;9.70;;;;;;;1.89;100.00;99266.73;640373;224;24868;-74
2021/01/01 04:30:52;;;;;;;14.07;9.23;;;;;;;1.85;100.00;99271.73;639936;223;24796;-74
2021/01/01 04:33:20;;;;;;;14.67;9.63;;;;;;;1.83;100.00;99271.47;637475;225;24801;-73
2021/01/01 04:35:48;;;;;;;16.63;9.57;;;;;;;1.76;100.00;99268.56;654792;219;24842;-73
2021/01/01 04:38:16;;;;;;;13.47;8.10;;;;;;;1.81;100.00;99274.62;652074;219;24785;-73
2021/01/01 04:40:44;;;;;;;11.10;8.63;;;;;;;1.79;100.00;99267.05;640118;223;24870;-73
2021/01/01 04:43:12;;;;;;;15.63;8.50;;;;;;;1.89;100.00;99266.73;650508;219;27950;-74
2021/01/01 04:45:40;;;;;;;12.10;7.77;;;;;;;1.85;100.00;99270.92;652837;219;24758;-74
2021/01/01 04:48:08;;;;;;;12.90;7.97;;;;;;;1.96;100.00;99273.02;654599;219;24787;-74
2021/01/01 04:50:36;;;;;;;12.53;7.50;;;;;;;2.05;100.00;99278.75;650154;220;24715;-74
2021/01/01 04:53:04;;;;;;;13.40;8.20;;;;;;;2.20;100.00;99272.94;639478;223;24810;-74
2021/01/01 04:55:32;;;;;;;11.50;7.80;;;;;;;2.19;100.00;99276.44;638300;224;24791;-71
2021/01/01 04:58:00;;;;;;;10.03;8.13;;;;;;;2.32;100.00;99286.59;650577;219;24737;-71
2021/01/01 05:00:28;;;;;;;10.27;7.47;;;;;;;2.23;100.00;99291.13;640014;224;24804;-71
2021/01/01 05:02:56;;;;;;;11.10;7.67;;;;;;;2.30;100.00;99288.00;649940;219;24838;-71
2021/01/01 05:05:27;;;;;;;9.67;7.40;;;;;;;2.33;100.00;99295.46;651274;219;24784;-71
2021/01/01 05:07:55;;;;;;;9.90;6.80;;;;;;;2.35;100.00;99297.44;650455;219;24757;-72
2021/01/01 05:10:23;;;;;;;14.40;9.80;;;;;;;2.27;100.00;99297.22;639845;224;24803;-71
2021/01/01 05:12:51;;;;;;;22.93;15.70;;;;;;;2.27;100.00;99302.34;649309;219;24806;-72
2021/01/01 05:15:34;;;;;;;21.03;16.80;;;;;;;2.27;100.00;99301.53;652402;219;24756;-71
2021/01/01 05:18:02;;;;;;;20.10;14.13;;;;;;;2.24;100.00;99293.58;638409;223;24858;-71
2021/01/01 05:20:30;;;;;;;15.93;12.10;;;;;;;2.16;100.00;99304.89;630576;226;24848;-71
2021/01/01 05:22:58;;;;;;;13.73;10.57;;;;;;;2.20;100.00;99308.85;654836;219;24767;-71
2021/01/01 05:25:26;;;;;;;14.13;7.80;;;;;;;2.11;100.00;99308.70;651247;219;25800;-72
2021/01/01 05:28:00;;;;;;;10.10;6.93;;;;;;;2.20;100.00;99312.70;648284;221;24743;-72
2021/01/01 05:30:31;;;;;;;11.57;6.60;;;;;;;2.29;100.00;99315.87;634477;222;25919;-71
2021/01/01 05:32:59;;;;;;;7.23;6.17;;;;;;;2.25;100.00;99316.19;643684;221;29267;-71
2021/01/01 05:35:28;;;;;;;8.70;6.50;;;;;;;2.44;100.00;99322.87;649776;221;27008;-71
2021/01/01 05:37:56;;;;;;;10.40;6.40;;;;;;;2.28;100.00;99321.94;651196;218;25041;-71
2021/01/01 05:40:31;;;;;;;10.90;7.75;;;;;;;2.71;100.00;99321.72;647179;219;32558;-71
2021/01/01 05:43:17;;;;;;;11.73;8.60;;;;;;;2.51;100.00;99328.35;651166;219;23731;-72
2021/01/01 05:45:45;;;;;;;8.70;6.60;;;;;;;2.47;100.00;99339.78;647562;219;27974;-71
2021/01/01 05:48:13;;;;;;;7.33;5.87;;;;;;;2.44;100.00;99343.88;641174;224;24794;-71
2021/01/01 05:50:41;;;;;;;6.70;5.80;;;;;;;2.51;100.00;99348.88;654517;219;26934;-71
2021/01/01 05:53:10;;;;;;;9.90;7.13;;;;;;;2.32;100.00;99353.30;653856;219;25055;-71
2021/01/01 05:55:38;;;;;;;8.10;7.00;;;;;;;2.05;100.00;99362.55;653764;219;24761;-71
2021/01/01 05:58:19;;;;;;;9.40;6.20;;;;;;;2.07;100.00;99354.28;638281;224;24787;-71
2021/01/01 06:00:48;;;;;;;6.87;5.40;;;;;;;1.93;100.00;99360.42;651018;219;26923;-71
2021/01/01 06:03:16;;;;;;;8.47;5.70;;;;;;;1.80;100.00;99359.67;638244;224;28022;-71
2021/01/01 06:05:44;;;;;;;8.33;6.07;;;;;;;1.86;100.00;99357.14;639917;224;24793;-71
2021/01/01 06:08:12;;;;;;;8.67;5.53;;;;;;;1.84;100.00;99355.16;652213;219;24809;-71
2021/01/01 06:10:40;;;;;;;7.40;5.63;;;;;;;2.21;100.00;99360.50;654663;219;24822;-71
2021/01/01 06:13:08;;;;;;;6.73;4.87;;;;;;;2.28;100.00;99360.87;649814;220;24753;-71
2021/01/01 06:15:36;;;;;;;9.23;6.80;;;;;;;2.28;100.00;99362.98;639882;223;24955;-71
2021/01/01 06:18:06;;;;;;;8.43;5.07;;;;;;;2.36;100.00;99365.77;638352;224;24803;-72
2021/01/01 06:20:34;;;;;;;6.27;5.03;;;;;;;2.44;100.00;99366.50;650966;220;24996;-71
2021/01/01 06:23:02;;;;;;;5.67;4.70;;;;;;;2.61;100.00;99372.93;639464;224;24794;-71
2021/01/01 06:25:30;;;;;;;6.13;4.50;;;;;;;2.65;100.00;99377.70;651240;219;25090;-71
2021/01/01 06:27:58;;;;;;;6.37;4.70;;;;;;;2.70;100.00;99373.53;655063;219;24816;-71
2021/01/01 06:30:26;;;;;;;8.30;6.03;;;;;;;2.85;100.00;99372.36;635792;224;25158;-71
2021/01/01 06:32:54;;;;;;;8.80;6.80;;;;;;;2.90;100.00;99369.44;633936;223;32753;-71
2021/01/01 06:35:22;;;;;;;7.10;6.20;;;;;;;2.76;100.00;99379.47;642392;223;23695;-71
2021/01/01 06:37:50;;;;;;;8.90;6.10;;;;;;;2.44;100.00;99390.06;642876;223;24803;-71
2021/01/01 06:40:38;;;;;;;7.07;5.47;;;;;;;2.38;100.00;99395.98;642438;223;24801;-71
2021/01/01 06:43:05;;;;;;;6.90;5.27;;;;;;;2.11;100.00;99395.44;640686;223;24828;-71
2021/01/01 06:45:35;;;;;;;7.73;5.70;;;;;;;2.06;100.00;99400.09;641261;223;24817;-73
2021/01/01 06:48:01;;;;;;;8.43;6.13;;;;;;;1.95;100.00;99404.70;652099;218;24772;-73
2021/01/01 06:50:29;;;;;;;7.00;5.37;;;;;;;1.94;100.00;99403.07;654618;218;24747;-73
2021/01/01 06:53:04;;;;;;;9.20;5.57;;;;;;;1.86;100.00;99409.70;655305;218;24791;-73
2021/01/01 06:55:32;;;;;;;7.17;6.03;;;;;;;1.95;100.00;99411.58;656462;218;24799;-73
2021/01/01 06:58:00;;;;;;;7.60;5.03;;;;;;;2.03;100.00;99411.86;650006;219;24766;-74
2021/01/01 07:00:39;;;;;;;6.70;5.23;;;;;;;1.97;100.00;99411.00;643508;223;24832;-73
2021/01/01 07:03:29;;;;;;;8.18;6.80;;;;;;;2.07;100.00;99413.27;637575;223;32966;-73
2021/01/01 07:05:57;;;;;;;10.47;6.60;;;;;;;1.95;100.00;99419.27;639628;223;26928;-73
2021/01/01 07:08:35;;;;;;;8.80;6.17;;;;;;;1.96;100.00;99422.19;638586;223;24842;-73
2021/01/01 07:11:03;;;;;;;9.30;6.70;;;;;;;1.94;100.00;99421.48;638904;224;24849;-73
2021/01/01 07:13:41;;;;;;;8.60;5.93;;;;;;;2.00;100.00;99416.75;634680;224;27940;-72
2021/01/01 07:16:09;;;;;;;7.37;6.20;;;;;;;2.06;100.00;99423.98;655526;219;24768;-72
2021/01/01 07:18:37;;;;;;;7.53;5.77;;;;;;;1.90;100.00;99422.17;654076;219;24753;-72
2021/01/01 07:21:05;;;;;;;8.97;6.23;;;;;;;1.87;100.00;99431.38;649704;219;24767;-72
2021/01/01 07:23:33;;;;;;;9.07;6.77;;;;;;;1.77;100.00;99435.51;633412;224;24841;-72
2021/01/01 07:26:01;;;;;;;13.03;8.85;;;;;;;1.93;100.00;99441.64;646195;219;32534;-72
2021/01/01 07:28:28;;;;;;;11.53;8.13;;;;;;;1.86;100.00;99437.89;639282;223;23680;-72
2021/01/01 07:30:56;;;;;;;11.13;7.87;;;;;;;1.85;100.00;99444.77;639713;224;24793;-72
2021/01/01 07:33:24;;;;;;;9.60;7.10;;;;;;;1.79;100.00;99446.00;651515;219;24840;-72
2021/01/01 07:35:52;;;;;;;10.80;6.97;;;;;;;1.84;100.00;99456.41;651189;219;24746;-72
2021/01/01 07:38:20;;;;;;;11.48;8.50;;;;;;;1.89;100.00;99456.89;634509;224;32726;-72
2021/01/01 07:40:48;;;;;;;10.00;7.37;;;;;;;1.87;100.00;99451.88;640614;224;23660;-72
2021/01/01 07:43:16;;;;;;;10.10;7.27;;;;;;;1.89;100.00;99450.48;652131;219;25042;-72
2021/01/01 07:45:44;;;;;;;9.30;6.40;;;;;;;1.89;100.00;99437.20;640298;224;24790;-72
2021/01/01 07:48:12;;;;;;;11.30;7.17;;;;;;;1.97;100.00;99435.36;639667;224;24857;-72
2021/01/01 07:50:40;;;;;;;11.10;7.20;;;;;;;2.10;100.00;99428.42;639639;224;24825;-72
2021/01/01 07:53:08;;;;;;;10.53;6.90;;;;;;;2.38;100.00;99428.52;653890;219;24802;-72
2021/01/01 07:55:36;;;;;;;9.70;7.70;;;;;;;2.34;100.00;99434.34;641589;223;24851;-72
2021/01/01 07:58:05;;;;;;;10.20;7.17;;;;;;;2.22;100.00;99436.98;640022;223;24908;-72
2021/01/01 08:00:33;;;;;;;11.23;7.63;;;;;;;2.15;100.00;99440.47;636436;223;24821;-72
2021/01/01 08:03:01;;;;;;;13.00;9.95;;;;;;;2.26;100.00;99445.65;647738;218;32569;-72
2021/01/01 08:05:29;;;;;;;13.80;9.43;;;;;;;2.27;100.00;99443.43;653505;219;23648;-71
2021/01/01 08:08:01;;;;;;;12.93;9.53;;;;;;;2.34;100.00;99449.73;640453;223;24796;-70
2021/01/01 08:10:32;;;;;;;14.13;8.40;;;;;;;2.37;100.00;99457.20;650175;218;24869;-70
2021/01/01 08:13:00;;;;;;;12.53;8.50;;;;;;;2.34;100.00;99460.00;653120;219;29015;-71
2021/01/01 08:15:28;;;;;;;14.80;9.00;;;;;;;2.35;100.00;99463.38;650022;220;24766;-70
2021/01/01 08:17:56;;;;;;;12.40;8.43;;;;;;;2.38;100.00;99458.84;639971;222;25069;-72
2021/01/01 08:20:24;;;;;;;17.13;10.53;;;;;;;2.32;100.00;99464.42;650549;220;24799;-72
2021/01/01 08:22:52;;;;;;;19.60;12.67;;;;;;;2.36;100.00;99464.55;638812;224;28018;-72
2021/01/01 08:25:20;;;;;;;20.90;12.87;;;;;;;2.35;100.00;99471.08;647732;219;26945;-72
2021/01/01 08:27:48;;;;;;;14.93;10.67;;;;;;;2.44;100.00;99472.17;638225;224;26048;-72
2021/01/01 08:30:16;;;;;;;16.65;11.65;;;;;;;2.71;100.00;99480.41;647612;219;32703;-72
2021/01/01 08:32:44;;;;;;;16.00;9.73;;;;;;;2.61;100.00;99478.98;652451;219;27106;-72
2021/01/01 08:35:13;;;;;;;14.23;10.43;;;;;;;2.82;100.00;99482.19;641030;224;24804;-72
2021/01/01 08:37:40;;;;;;;15.23;10.93;;;;;;;3.08;100.00;99470.76;645374;220;43375;-72
2021/01/01 08:40:09;;;;;;;14.73;9.50;;;;;;;3.21;100.00;99479.64;638877;224;23717;-72
2021/01/01 08:42:36;;;;;;;13.00;9.10;;;;;;;3.49;100.00;99486.88;638547;224;24823;-72
2021/01/01 08:45:05;;;;;;;14.17;9.40;;;;;;;3.47;100.00;99496.46;638935;224;24795;-72
2021/01/01 08:47:41;;;;;;;16.20;10.20;;;;;;;3.74;100.00;99490.94;648201;219;24762;-72
2021/01/01 08:50:17;;;;;;;18.83;10.70;;;;;;;3.84;100.00;99489.77;656094;219;24762;-72
2021/01/01 08:52:46;;;;;;;17.80;10.97;;;;;;;3.92;100.00;99488.67;647883;219;24755;-72
2021/01/01 08:55:14;;;;;;;17.10;10.20;;;;;;;4.03;100.00;99487.37;638529;224;24792;-72
2021/01/01 08:57:42;;;;;;;14.00;9.47;;;;;;;4.04;100.00;99494.14;638542;223;24806;-72
2021/01/01 09:00:11;;;;;;;14.40;9.93;;;;;;;4.11;100.00;99490.16;651286;219;24746;-72
2021/01/01 09:02:39;;;;;;;14.27;9.10;;;;;;;4.08;100.00;99490.41;644890;221;24872;-72
2021/01/01 09:05:08;;;;;;;15.07;9.53;;;;;;;4.23;100.00;99497.84;639255;224;24816;-72
2021/01/01 09:07:36;;;;;;;14.80;9.43;;;;;;;4.38;100.00;99500.48;638380;224;28020;-72
2021/01/01 09:10:16;;;;;;;13.87;9.67;;;;;;;3.97;100.00;99511.02;647946;219;26916;-72
2021/01/01 09:12:44;;;;;;;14.03;8.80;;;;;;;4.22;100.00;99508.58;655197;218;24780;-72
2021/01/01 09:15:14;;;;;;;12.63;8.90;;;;;;;4.27;100.00;99506.95;654347;219;24792;-72
2021/01/01 09:17:42;;;;;;;14.30;9.57;;;;;;;4.32;100.00;99509.49;640223;223;24802;-72
2021/01/01 09:20:14;;;;;;;19.93;13.60;;;;;;;4.53;99.57;99504.86;651748;218;43279;-73
2021/01/01 09:22:39;;;;;;;17.80;11.50;;;;;;;4.32;100.00;99508.67;652997;219;25870;-73
2021/01/01 09:25:18;;;;;;;19.57;12.70;;;;;;;4.44;100.00;99515.42;639984;223;24815;-72
2021/01/01 09:27:47;;;;;;;18.83;11.93;;;;;;;4.44;100.00;99518.81;654946;219;24757;-73
2021/01/01 09:30:16;;;;;;;19.40;11.77;;;;;;;4.43;100.00;99517.65;652880;219;26904;-72
2021/01/01 09:32:45;;;;;;;17.83;11.47;;;;;;;4.79;100.00;99519.48;650513;219;24734;-73
2021/01/01 09:35:14;;;;;;;16.23;11.67;;;;;;;5.12;100.00;99519.27;640343;222;24800;-72
2021/01/01 09:37:47;;;;;;;17.93;11.00;;;;;;;4.94;99.85;99523.38;651502;219;24913;-72
2021/01/01 09:40:16;;;;;;;15.77;10.77;;;;;;;4.31;100.00;99524.59;653143;219;24752;-72
2021/01/01 09:42:44;;;;;;;15.60;10.13;;;;;;;4.14;100.00;99527.22;650955;219;24770;-72
2021/01/01 09:45:13;;;;;;;17.27;12.30;;;;;;;4.36;100.00;99533.22;654121;219;28972;-72
2021/01/01 09:47:41;;;;;;;14.43;10.43;;;;;;;4.73;100.00;99536.23;651974;219;24760;-72
2021/01/01 09:50:09;;;;;;;16.20;10.80;;;;;;;4.94;100.00;99523.38;639888;223;24817;-72
2021/01/01 09:52:37;;;;;;;15.60;9.90;;;;;;;5.10;100.00;99525.03;652363;219;25091;-72
2021/01/01 09:55:06;;;;;;;16.37;11.30;;;;;;;5.50;98.05;99522.98;655822;219;24771;-72
2021/01/01 09:57:34;;;;;;;15.87;11.30;;;;;;;5.95;96.52;99515.67;649733;220;24725;-72
2021/01/01 10:00:03;;;;;;;16.60;11.80;;;;;;;5.36;97.20;99519.80;638789;224;24816;-72
2021/01/01 10:02:30;;;;;;;14.60;11.00;;;;;;;5.30;96.56;99523.36;630776;224;32789;-72
2021/01/01 10:04:58;;;;;;;17.57;11.07;;;;;;;5.56;96.71;99524.56;637960;224;23710;-72
2021/01/01 10:07:28;;;;;;;14.13;10.50;;;;;;;4.80;98.03;99530.13;653264;219;24753;-72
2021/01/01 10:09:55;;;;;;;15.77;9.93;;;;;;;5.49;98.13;99535.51;650724;220;24948;-73
2021/01/01 10:12:23;;;;;;;13.83;10.80;;;;;;;5.27;96.10;99530.06;633341;224;33067;-72
2021/01/01 10:14:54;;;;;;;14.55;11.60;;;;;;;5.83;95.40;99521.86;632730;224;32811;-73
2021/01/01 10:17:19;;;;;;;15.53;11.90;;;;;;;5.59;94.40;99518.31;641336;224;23683;-73
2021/01/01 10:19:47;;;;;;;13.30;10.03;;;;;;;5.26;95.86;99527.14;653711;219;24804;-73
2021/01/01 10:22:15;;;;;;;15.40;10.37;;;;;;;5.60;96.60;99529.79;653564;218;24848;-73
2021/01/01 10:24:44;;;;;;;15.00;10.43;;;;;;;6.27;95.47;99529.64;640705;223;25444;-73
2021/01/01 10:27:12;;;;;;;13.30;10.30;;;;;;;6.42;92.74;99524.89;633619;223;32793;-73
2021/01/01 10:29:40;;;;;;;12.27;9.57;;;;;;;5.57;95.02;99530.53;639607;224;24889;-73
2021/01/01 10:32:09;;;;;;;12.67;8.33;;;;;;;5.76;95.80;99539.61;641444;223;24802;-73
2021/01/01 10:34:37;;;;;;;12.47;9.20;;;;;;;5.86;95.50;99534.02;639256;223;24830;-73
2021/01/01 10:37:05;;;;;;;13.90;10.70;;;;;;;6.71;93.84;99532.16;649369;219;32622;-73
2021/01/01 10:39:33;;;;;;;12.15;9.10;;;;;;;6.58;90.38;99510.14;648797;219;32639;-73
2021/01/01 10:42:01;;;;;;;11.40;8.70;;;;;;;5.87;91.66;99512.90;638730;224;23692;-73
2021/01/01 10:44:30;;;;;;;8.50;6.90;;;;;;;5.92;92.94;99519.34;647374;219;24746;-73
2021/01/01 10:46:57;;;;;;;10.03;7.77;;;;;;;5.90;90.70;99509.61;649678;221;24751;-73
2021/01/01 10:49:25;;;;;;;12.67;8.20;;;;;;;6.05;92.17;99521.66;646645;221;24799;-73
2021/01/01 10:51:57;;;;;;;11.90;7.90;;;;;;;5.82;92.98;99516.36;639647;223;24812;-73
2021/01/01 10:54:25;;;;;;;8.30;6.20;;;;;;;5.98;91.45;99521.86;654078;219;24778;-73
2021/01/01 10:56:52;;;;;;;7.78;6.50;;;;;;;6.34;89.88;99506.70;634985;223;32669;-72
2021/01/01 10:59:20;;;;;;;8.50;6.30;;;;;;;6.12;89.62;99502.59;639539;224;23662;-72
2021/01/01 11:01:48;;;;;;;7.70;5.80;;;;;;;5.74;88.28;99494.27;650794;219;25852;-73
2021/01/01 11:04:16;;;;;;;7.30;6.17;;;;;;;5.85;89.58;99502.72;632333;224;32831;-73
2021/01/01 11:06:45;;;;;;;6.73;5.50;;;;;;;5.68;89.73;99502.06;638505;224;23703;-73
2021/01/01 11:09:12;;;;;;;6.77;5.10;;;;;;;5.56;88.85;99504.40;651335;219;24767;-73
2021/01/01 11:11:40;;;;;;;7.13;5.50;;;;;;;5.38;88.76;99504.20;651037;219;29074;-73
2021/01/01 11:14:12;;;;;;;8.27;5.53;;;;;;;5.34;89.88;99510.06;639703;223;24821;-73
2021/01/01 12:24:22;;;;;;;7.10;5.30;;;;;;;5.38;93.64;99499.52;637660;224;24914;-73
2021/01/01 12:26:45;;;;;;;7.40;6.10;;;;;;;5.69;92.53;99495.95;643996;218;43179;-72
2021/01/01 12:29:13;;;;;;;7.80;6.20;;;;;;;5.56;92.10;99497.48;651748;219;24800;-73
2021/01/01 12:31:41;;;;;;;6.40;5.20;;;;;;;5.55;92.44;99499.72;651567;219;24744;-72
2021/01/01 12:34:09;;;;;;;6.23;5.30;;;;;;;5.56;92.55;99501.82;642524;223;24795;-72
2021/01/01 12:36:37;;;;;;;6.53;5.53;;;;;;;5.54;92.22;99501.95;638965;224;24846;-71
2021/01/01 12:39:05;;;;;;;6.80;5.60;;;;;;;5.44;93.08;99504.14;639836;224;24814;-71